Decoded Metar for LJMB (MARIBOR in SLOVENIA) (IATA:MBX) | Meteo·Mobile Aviation Weather
aviador You're here:

LJMB Decoded Metar

MARIBOR in SLOVENIA
Report Time2019-05-21 15:00:00
UTC Time2019-05-21 15:18:58
Flight Rules vfr VFR
Wind200° at 09 kt
W.Decomp.*RWY 14: 4.9 kt HW 7.5 kt RCW
Visibility9999 m
Phenomena:Light Rain
Clouds:Few 040 Hf
Scattered 053 Hf
Overcast 080 Hf
Expected CloudBase > 1,600 ft AGL from Temp-Dew spread
Ceiling8,000 ft
Temp16°C (ISA +3)
Dew Point12°C (77% RH)
AAT13.4°C
QNH1008 hPa
Density Alt1,552 ft
Elevation869 ft
Report Wrong Elevation
Raw Report
LJMB 211500Z 20009KT 9999 -RA FEW040 SCT053 OVC080 16/12 Q1008=

Extra information for LJMB:More info

Metar Taf Metar & Taf Last 4 Metars F.Rules Stats Wind Profile Meteogram Temp Stats Airport Information Weather charts Add Link Nearby VenuesMetar ALERT Operation Metar Decoded Social comments